Time;durP1;ratioP1;P1;durP2;ratioP2;P2;SDS_P1;SDS_P2;PMS_P1;PMS_P2;Temp;Humidity;BMP_temperature;BMP_pressure;BME280_temperature;BME280_humidity;BME280_pressure;Samples;Min_cycle;Max_cycle;Signal;HPM_P1;HPM_P2
2021/10/06 00:01:35;;;;;;;11.60;10.80;;;10.60;99.90;;;;;;4927779;29;20622;-77
2021/10/06 00:04:03;;;;;;;11.20;10.60;;;10.50;99.90;;;;;;4937006;29;20569;-76
2021/10/06 00:06:30;;;;;;;11.20;10.53;;;10.50;99.90;;;;;;4929045;29;20275;-76
2021/10/06 00:08:57;;;;;;;11.47;10.77;;;10.50;99.90;;;;;;4912450;29;20516;-76
2021/10/06 00:11:24;;;;;;;11.90;10.97;;;10.50;99.90;;;;;;4911015;29;20257;-77
2021/10/06 00:13:51;;;;;;;11.07;10.47;;;10.50;99.90;;;;;;4909932;29;20195;-76
2021/10/06 00:16:19;;;;;;;11.17;10.47;;;10.50;99.90;;;;;;4906411;29;20268;-76
2021/10/06 00:18:46;;;;;;;11.43;10.73;;;10.40;99.90;;;;;;4904805;29;20268;-76
2021/10/06 00:21:15;;;;;;;11.23;10.53;;;10.40;99.90;;;;;;4907667;29;20200;-76
2021/10/06 00:23:42;;;;;;;10.90;10.30;;;10.40;99.90;;;;;;4904143;29;20746;-76
2021/10/06 00:26:09;;;;;;;10.80;10.20;;;10.40;99.90;;;;;;4904720;29;20276;-76
2021/10/06 00:28:35;;;;;;;11.20;10.40;;;10.40;99.90;;;;;;4906683;29;20248;-76
2021/10/06 00:31:03;;;;;;;11.27;10.57;;;10.40;99.90;;;;;;4906075;29;20268;-76
2021/10/06 00:33:30;;;;;;;11.70;11.00;;;10.30;99.90;;;;;;4905510;29;20669;-77
2021/10/06 00:35:58;;;;;;;11.63;10.90;;;10.30;99.90;;;;;;4908158;29;20257;-77
2021/10/06 00:38:26;;;;;;;11.30;10.60;;;10.20;99.90;;;;;;4908627;29;20192;-77
2021/10/06 00:40:55;;;;;;;11.53;10.83;;;10.20;99.90;;;;;;4902599;29;20199;-76
2021/10/06 00:43:22;;;;;;;11.27;10.57;;;10.20;99.90;;;;;;4903263;29;20248;-76
2021/10/06 00:45:50;;;;;;;11.43;10.80;;;10.20;99.90;;;;;;4906352;29;20184;-76
2021/10/06 00:48:17;;;;;;;11.50;10.80;;;10.10;99.90;;;;;;4905379;29;20201;-77
2021/10/06 00:50:45;;;;;;;11.47;10.77;;;10.10;99.90;;;;;;4908446;29;20742;-76
2021/10/06 00:53:12;;;;;;;11.07;10.37;;;10.10;99.90;;;;;;4899913;29;20204;-76
2021/10/06 00:55:41;;;;;;;11.90;10.83;;;10.00;99.90;;;;;;4907135;29;20212;-76
2021/10/06 00:58:08;;;;;;;10.80;10.10;;;10.00;99.90;;;;;;4904178;29;20619;-76
2021/10/06 01:00:35;;;;;;;11.20;10.50;;;9.90;99.90;;;;;;4907337;29;20259;-76
2021/10/06 01:03:02;;;;;;;11.13;10.43;;;10.00;99.90;;;;;;4903094;29;20669;-76
2021/10/06 01:05:31;;;;;;;11.43;10.73;;;9.90;99.90;;;;;;4904385;29;20197;-76
2021/10/06 01:07:58;;;;;;;11.70;11.00;;;9.90;99.90;;;;;;4903219;29;20583;-76
2021/10/06 01:10:25;;;;;;;11.70;11.00;;;9.90;99.90;;;;;;4898088;29;20199;-77
2021/10/06 01:12:54;;;;;;;11.20;10.60;;;9.90;99.90;;;;;;4903976;29;20207;-76
2021/10/06 01:15:21;;;;;;;11.33;10.60;;;9.90;99.90;;;;;;4909133;29;20212;-76
2021/10/06 01:17:48;;;;;;;11.77;11.00;;;9.80;99.90;;;;;;4908042;29;20283;-76
2021/10/06 01:20:14;;;;;;;11.10;10.50;;;9.90;99.90;;;;;;4905757;29;20566;-76
2021/10/06 01:22:43;;;;;;;10.80;10.20;;;9.90;99.90;;;;;;4907578;29;20260;-76
2021/10/06 01:25:12;;;;;;;10.90;10.30;;;9.90;99.90;;;;;;4911830;29;20386;-76
2021/10/06 01:27:40;;;;;;;10.90;10.30;;;9.90;99.90;;;;;;4907818;29;20720;-76
2021/10/06 01:30:08;;;;;;;11.77;10.70;;;9.90;99.90;;;;;;4902769;29;20670;-76
2021/10/06 01:32:36;;;;;;;11.00;10.40;;;9.90;99.90;;;;;;4905598;29;20203;-76
2021/10/06 01:35:06;;;;;;;11.53;10.60;;;9.90;99.90;;;;;;4904788;29;20202;-76
2021/10/06 01:37:34;;;;;;;11.13;10.47;;;9.90;99.90;;;;;;4901968;29;20291;-76
2021/10/06 01:40:04;;;;;;;11.30;10.40;;;9.90;99.90;;;;;;4904688;29;20203;-77
2021/10/06 01:42:31;;;;;;;11.27;10.67;;;9.90;99.90;;;;;;4905645;29;20249;-76
2021/10/06 01:44:58;;;;;;;11.20;10.60;;;9.90;99.90;;;;;;4907210;29;20228;-77
2021/10/06 01:47:27;;;;;;;10.80;10.20;;;9.90;99.90;;;;;;4901558;29;20256;-76
2021/10/06 01:49:54;;;;;;;11.00;10.37;;;9.90;99.90;;;;;;4907076;29;20256;-77
2021/10/06 01:52:23;;;;;;;11.47;10.77;;;9.90;99.90;;;;;;4905305;29;20210;-76
2021/10/06 01:54:50;;;;;;;11.20;10.60;;;9.80;99.90;;;;;;4900929;29;20200;-76
2021/10/06 01:57:18;;;;;;;11.50;10.80;;;9.80;99.90;;;;;;4907714;29;20218;-76
2021/10/06 01:59:46;;;;;;;11.53;10.73;;;9.90;99.90;;;;;;4903819;29;20237;-76
2021/10/06 02:02:13;;;;;;;11.70;11.10;;;9.90;99.90;;;;;;4904970;29;20205;-76
2021/10/06 02:04:41;;;;;;;11.77;10.97;;;9.90;99.90;;;;;;4906743;29;20765;-76
2021/10/06 02:07:08;;;;;;;11.77;11.07;;;9.90;99.90;;;;;;4903784;29;20221;-76
2021/10/06 02:09:35;;;;;;;11.90;11.27;;;9.90;99.90;;;;;;4905228;29;20631;-77
2021/10/06 02:12:02;;;;;;;11.57;10.93;;;9.90;99.90;;;;;;4901119;29;20204;-76
2021/10/06 02:14:31;;;;;;;11.90;11.10;;;9.90;99.90;;;;;;4900208;29;20374;-76
2021/10/06 02:16:58;;;;;;;11.87;11.17;;;9.90;99.90;;;;;;4902152;29;20224;-77
2021/10/06 02:19:25;;;;;;;11.73;11.03;;;9.90;99.90;;;;;;4904200;29;20288;-76
2021/10/06 02:21:52;;;;;;;12.03;11.03;;;9.90;99.90;;;;;;4905983;29;20204;-76
2021/10/06 02:24:18;;;;;;;11.37;10.67;;;10.00;99.90;;;;;;4904442;29;20196;-76
2021/10/06 02:26:45;;;;;;;11.20;10.43;;;10.00;99.90;;;;;;4906914;29;20220;-76
2021/10/06 02:29:12;;;;;;;11.80;11.00;;;10.10;99.90;;;;;;4903343;29;20618;-76
2021/10/06 02:31:40;;;;;;;11.20;10.53;;;10.20;99.90;;;;;;4905544;29;20249;-77
2021/10/06 02:34:07;;;;;;;11.90;10.97;;;10.30;99.90;;;;;;4904334;29;20203;-76
2021/10/06 02:36:34;;;;;;;12.27;11.57;;;10.30;99.90;;;;;;4901302;29;20224;-77
2021/10/06 02:39:01;;;;;;;11.00;10.40;;;10.40;99.90;;;;;;4904153;29;20678;-76
2021/10/06 02:41:27;;;;;;;10.90;10.20;;;10.40;99.90;;;;;;4904638;29;20279;-76
2021/10/06 02:43:54;;;;;;;11.33;10.43;;;10.50;99.90;;;;;;4905157;29;20219;-78
2021/10/06 02:46:21;;;;;;;10.40;9.80;;;10.50;99.90;;;;;;4905568;29;20618;-76
2021/10/06 02:48:49;;;;;;;10.90;10.20;;;10.50;99.90;;;;;;4903477;29;20191;-77
2021/10/06 02:51:16;;;;;;;10.30;9.80;;;10.50;99.90;;;;;;4898479;29;20200;-76
2021/10/06 02:53:43;;;;;;;10.40;9.80;;;10.40;99.90;;;;;;4902713;29;20228;-76
2021/10/06 02:56:10;;;;;;;10.27;9.67;;;10.40;99.90;;;;;;4902716;29;20307;-75
2021/10/06 02:58:36;;;;;;;10.40;9.80;;;10.40;99.90;;;;;;4900180;29;20284;-79
2021/10/06 03:01:03;;;;;;;10.60;10.00;;;10.40;99.90;;;;;;4889764;29;20270;-76
2021/10/06 03:03:30;;;;;;;10.63;10.03;;;10.40;99.90;;;;;;4893986;29;20662;-77
2021/10/06 03:05:58;;;;;;;10.87;10.27;;;10.40;99.90;;;;;;4899864;29;20630;-76
2021/10/06 03:08:25;;;;;;;10.90;10.30;;;10.40;99.90;;;;;;4891445;29;20229;-75
2021/10/06 03:10:52;;;;;;;10.83;10.13;;;10.40;99.90;;;;;;4896790;29;20205;-76
2021/10/06 03:13:19;;;;;;;11.03;10.43;;;10.40;99.90;;;;;;4904225;29;20591;-77
2021/10/06 03:15:45;;;;;;;11.90;11.20;;;10.40;99.90;;;;;;4908921;29;20216;-77
2021/10/06 03:18:12;;;;;;;10.80;10.20;;;10.40;99.90;;;;;;4908442;29;20200;-78
2021/10/06 03:20:39;;;;;;;10.90;10.30;;;10.40;99.90;;;;;;4903176;29;20209;-81
2021/10/06 03:23:09;;;;;;;11.77;11.00;;;10.50;99.90;;;;;;4893702;29;20220;-76
2021/10/06 03:25:35;;;;;;;12.20;11.40;;;10.50;99.90;;;;;;4905310;29;20203;-77
2021/10/06 03:28:03;;;;;;;11.00;10.40;;;10.60;99.90;;;;;;4903750;29;20299;-77
2021/10/06 03:30:30;;;;;;;11.20;10.60;;;10.60;99.90;;;;;;4907866;29;20200;-77
2021/10/06 03:32:57;;;;;;;11.83;11.13;;;10.60;99.90;;;;;;4904122;29;20233;-77
2021/10/06 03:35:23;;;;;;;11.40;10.70;;;10.60;99.90;;;;;;4909241;29;20260;-77
2021/10/06 03:37:51;;;;;;;11.00;10.40;;;10.60;99.90;;;;;;4908545;29;20748;-77
2021/10/06 03:40:19;;;;;;;10.80;10.20;;;10.60;99.90;;;;;;4903838;29;20205;-77
2021/10/06 03:42:46;;;;;;;11.03;10.33;;;10.60;99.90;;;;;;4897834;29;20207;-78
2021/10/06 03:45:15;;;;;;;11.50;10.80;;;10.60;99.90;;;;;;4898026;29;20213;-77
2021/10/06 03:47:43;;;;;;;12.10;11.40;;;10.60;99.90;;;;;;4910499;29;20302;-77
2021/10/06 03:50:12;;;;;;;11.77;11.17;;;10.60;99.90;;;;;;4906229;29;20294;-78
2021/10/06 03:52:40;;;;;;;12.50;11.70;;;10.70;99.90;;;;;;4907024;29;20204;-77
2021/10/06 03:55:08;;;;;;;11.47;10.77;;;10.70;99.90;;;;;;4897530;29;20201;-77
2021/10/06 03:57:37;;;;;;;11.80;11.10;;;10.70;99.90;;;;;;4900205;29;20224;-77
2021/10/06 04:00:06;;;;;;;11.50;10.90;;;10.70;99.90;;;;;;4905402;29;20235;-77
2021/10/06 04:02:33;;;;;;;11.80;11.20;;;10.70;99.90;;;;;;4909381;29;20207;-77
2021/10/06 04:04:59;;;;;;;11.03;10.43;;;10.70;99.90;;;;;;4910037;29;20223;-77
2021/10/06 04:07:26;;;;;;;10.87;10.27;;;10.70;99.90;;;;;;4909286;29;20291;-77
2021/10/06 04:09:53;;;;;;;11.10;10.50;;;10.70;99.90;;;;;;4910646;29;20200;-78
2021/10/06 04:12:20;;;;;;;11.67;10.97;;;10.60;99.90;;;;;;4911092;29;20263;-78
2021/10/06 04:14:48;;;;;;;11.50;10.90;;;10.70;99.90;;;;;;4907695;29;20204;-77
2021/10/06 04:17:15;;;;;;;11.80;11.00;;;10.70;99.90;;;;;;4908235;29;20649;-77
2021/10/06 04:19:42;;;;;;;11.60;11.00;;;10.70;99.90;;;;;;4906618;29;20685;-77
2021/10/06 04:22:09;;;;;;;11.67;11.07;;;10.70;99.90;;;;;;4907347;29;20211;-77
2021/10/06 04:24:36;;;;;;;12.40;11.70;;;10.60;99.90;;;;;;4908896;29;20196;-78
2021/10/06 04:27:03;;;;;;;12.00;11.40;;;10.60;99.90;;;;;;4908306;29;20310;-77
2021/10/06 04:29:30;;;;;;;11.17;10.57;;;10.60;99.90;;;;;;4908945;29;20196;-77
2021/10/06 04:31:58;;;;;;;11.63;10.93;;;10.60;99.90;;;;;;4909194;29;20204;-78
2021/10/06 04:34:25;;;;;;;11.07;10.47;;;10.60;99.90;;;;;;4905270;29;20616;-79
2021/10/06 04:36:52;;;;;;;11.23;10.63;;;10.60;99.90;;;;;;4909969;29;20219;-78
2021/10/06 04:39:19;;;;;;;11.20;10.60;;;10.60;99.90;;;;;;4902354;29;20204;-78
2021/10/06 04:41:46;;;;;;;11.00;10.40;;;10.60;99.90;;;;;;4908980;29;20685;-78
2021/10/06 04:44:12;;;;;;;10.93;10.33;;;10.60;99.90;;;;;;4909465;29;20235;-78
2021/10/06 04:46:39;;;;;;;11.10;10.50;;;10.70;99.90;;;;;;4905250;29;20224;-78
2021/10/06 04:49:07;;;;;;;11.50;10.80;;;10.60;99.90;;;;;;4911478;29;20624;-78
2021/10/06 04:51:34;;;;;;;11.40;10.80;;;10.70;99.90;;;;;;4909471;29;20231;-78
2021/10/06 04:54:01;;;;;;;11.73;11.00;;;10.70;99.90;;;;;;4901716;29;20220;-78
2021/10/06 04:56:28;;;;;;;11.30;10.70;;;10.70;99.90;;;;;;4902195;29;20579;-78
2021/10/06 04:58:54;;;;;;;11.30;10.70;;;10.70;99.90;;;;;;4901831;29;20200;-78
2021/10/06 05:01:21;;;;;;;11.30;10.60;;;10.70;99.90;;;;;;4905996;29;20201;-78
2021/10/06 05:03:48;;;;;;;11.50;10.80;;;10.70;99.90;;;;;;4908327;29;20587;-78
2021/10/06 05:06:16;;;;;;;11.00;10.30;;;10.70;99.90;;;;;;4897336;29;20244;-78
2021/10/06 05:08:45;;;;;;;11.93;11.10;;;10.70;99.90;;;;;;4897799;29;20272;-78
2021/10/06 05:11:12;;;;;;;11.90;11.20;;;10.70;99.90;;;;;;4910402;29;20196;-79
2021/10/06 05:13:39;;;;;;;11.83;11.13;;;10.60;99.90;;;;;;4907511;29;20200;-78
2021/10/06 05:16:06;;;;;;;11.20;10.60;;;10.60;99.90;;;;;;4906280;29;20299;-78
2021/10/06 05:18:32;;;;;;;11.50;10.80;;;10.50;99.90;;;;;;4910039;29;20250;-78
2021/10/06 05:20:59;;;;;;;11.37;10.77;;;10.50;99.90;;;;;;4906723;29;20204;-79
2021/10/06 05:23:27;;;;;;;11.30;10.70;;;10.40;99.90;;;;;;4898519;29;20261;-78
2021/10/06 05:25:54;;;;;;;11.30;10.70;;;10.40;99.90;;;;;;4907249;29;20456;-78
2021/10/06 05:28:21;;;;;;;11.40;10.80;;;10.30;99.90;;;;;;4906415;29;20234;-78
2021/10/06 05:30:48;;;;;;;11.50;10.90;;;10.30;99.90;;;;;;4909630;29;20283;-79
2021/10/06 05:33:15;;;;;;;11.43;10.80;;;10.30;99.90;;;;;;4909798;29;20233;-79
2021/10/06 05:35:42;;;;;;;11.47;10.77;;;10.30;99.90;;;;;;4904634;29;20266;-78
2021/10/06 05:38:09;;;;;;;11.07;10.37;;;10.40;99.90;;;;;;4909103;29;20224;-78
2021/10/06 05:40:37;;;;;;;11.10;10.40;;;10.40;99.90;;;;;;4906901;29;20237;-78
2021/10/06 05:43:04;;;;;;;11.67;10.97;;;10.40;99.90;;;;;;4903195;29;20510;-79
2021/10/06 05:45:31;;;;;;;11.47;10.70;;;10.40;99.90;;;;;;4912133;29;20282;-78
2021/10/06 05:47:58;;;;;;;11.37;10.67;;;10.50;99.90;;;;;;4905138;29;20244;-78
2021/10/06 05:50:25;;;;;;;11.30;10.70;;;10.50;99.90;;;;;;4912718;29;20277;-79
2021/10/06 05:52:51;;;;;;;11.10;10.50;;;10.50;99.90;;;;;;4906265;29;20188;-79
2021/10/06 05:55:18;;;;;;;11.37;10.70;;;10.50;99.90;;;;;;4905085;29;20245;-78
2021/10/06 05:57:46;;;;;;;11.47;10.83;;;10.60;99.90;;;;;;4913918;29;20269;-77
2021/10/06 06:00:14;;;;;;;11.40;10.80;;;10.50;99.90;;;;;;4904020;29;20213;-78
2021/10/06 06:02:45;;;;;;;11.50;10.80;;;10.60;99.90;;;;;;4908353;29;20196;-78
2021/10/06 06:05:12;;;;;;;10.93;10.33;;;10.60;99.90;;;;;;4912202;29;20196;-77
2021/10/06 06:07:39;;;;;;;11.27;10.67;;;10.70;99.90;;;;;;4907014;29;20279;-77
2021/10/06 06:10:07;;;;;;;11.03;10.33;;;10.70;99.90;;;;;;4908453;29;20204;-77
2021/10/06 06:12:34;;;;;;;11.13;10.43;;;10.70;99.90;;;;;;4905870;29;20729;-77
2021/10/06 06:15:02;;;;;;;10.73;10.10;;;10.70;99.90;;;;;;4907856;29;20203;-77
2021/10/06 06:17:29;;;;;;;11.20;10.50;;;10.80;99.90;;;;;;4905558;29;20577;-77
2021/10/06 06:19:56;;;;;;;11.90;11.00;;;10.80;99.90;;;;;;4888107;29;20669;-77
2021/10/06 06:22:23;;;;;;;11.37;10.67;;;10.80;99.90;;;;;;4905814;29;20204;-77
2021/10/06 06:24:50;;;;;;;11.73;11.00;;;10.90;99.90;;;;;;4909361;29;20204;-78
2021/10/06 06:27:16;;;;;;;11.57;10.77;;;10.90;99.90;;;;;;4906239;29;20216;-77
2021/10/06 06:29:44;;;;;;;11.57;10.77;;;11.00;99.90;;;;;;4910067;29;20212;-77
2021/10/06 06:32:12;;;;;;;11.50;10.60;;;11.10;99.90;;;;;;4904883;29;20200;-77
2021/10/06 06:34:38;;;;;;;11.47;10.67;;;11.10;99.90;;;;;;4912592;29;20195;-78
2021/10/06 06:37:05;;;;;;;3.67;3.37;;;11.10;99.90;;;;;;4897744;29;20224;-77
2021/10/06 06:39:32;;;;;;;11.13;10.53;;;11.20;99.90;;;;;;4906977;29;20632;-78
2021/10/06 06:41:59;;;;;;;8.57;8.07;;;11.30;99.90;;;;;;4897825;29;20618;-78
2021/10/06 06:44:26;;;;;;;8.17;7.63;;;11.40;99.90;;;;;;4886961;29;20209;-77
2021/10/06 06:46:53;;;;;;;5.97;5.47;;;11.40;99.90;;;;;;4894349;29;20264;-77
2021/10/06 06:49:21;;;;;;;2.90;2.43;;;11.40;99.90;;;;;;4890023;29;20257;-77
2021/10/06 06:51:48;;;;;;;12.13;11.43;;;11.40;99.90;;;;;;4898729;29;20200;-77
2021/10/06 06:54:15;;;;;;;11.17;10.47;;;11.40;99.90;;;;;;4909095;29;20255;-80
2021/10/06 06:56:41;;;;;;;10.93;10.33;;;11.40;99.90;;;;;;4909198;29;20239;-78
2021/10/06 06:59:09;;;;;;;10.87;10.27;;;11.40;99.90;;;;;;4911988;29;20710;-78
2021/10/06 07:01:36;;;;;;;11.00;10.30;;;11.30;99.90;;;;;;4912017;29;20658;-78
2021/10/06 07:04:03;;;;;;;11.00;10.10;;;11.20;99.90;;;;;;4907552;29;20200;-77
2021/10/06 07:06:34;;;;;;;10.57;9.77;;;11.30;99.90;;;;;;4902060;29;20220;-78
2021/10/06 07:09:03;;;;;;;10.87;10.17;;;11.40;99.90;;;;;;4916752;29;20665;-78
2021/10/06 07:11:30;;;;;;;10.70;10.00;;;11.70;99.90;;;;;;4901406;29;20204;-78
2021/10/06 07:13:57;;;;;;;10.97;10.20;;;12.30;99.90;;;;;;4911161;29;20723;-77
2021/10/06 07:16:24;;;;;;;7.27;6.77;;;12.60;99.90;;;;;;4907633;29;20228;-77
2021/10/06 07:18:51;;;;;;;4.13;3.83;;;12.90;99.90;;;;;;4908866;29;20529;-78
2021/10/06 07:21:18;;;;;;;3.67;2.80;;;13.20;99.90;;;;;;4910765;29;20198;-77
2021/10/06 07:23:46;;;;;;;3.60;2.50;;;13.30;99.90;;;;;;4911345;29;20885;-77
2021/10/06 07:26:13;;;;;;;4.13;2.73;;;13.40;99.90;;;;;;4912880;29;20302;-78
2021/10/06 07:28:40;;;;;;;4.80;4.50;;;13.60;99.90;;;;;;4910715;29;20216;-78
2021/10/06 07:31:07;;;;;;;5.33;4.93;;;13.90;99.90;;;;;;4910675;29;20681;-78
2021/10/06 07:33:34;;;;;;;7.60;7.00;;;14.50;99.90;;;;;;4908363;29;20616;-78
2021/10/06 07:36:00;;;;;;;3.33;3.03;;;15.00;99.90;;;;;;4912725;29;20228;-78
2021/10/06 07:38:27;;;;;;;8.87;8.37;;;15.60;99.90;;;;;;4910179;29;20216;-78
2021/10/06 07:40:55;;;;;;;4.00;3.10;;;16.00;99.90;;;;;;4911452;29;20675;-78
2021/10/06 07:43:22;;;;;;;2.90;2.70;;;16.00;99.90;;;;;;4912185;29;21274;-78
2021/10/06 07:45:50;;;;;;;8.30;7.47;;;15.70;99.90;;;;;;4911264;29;20295;-78
2021/10/06 07:48:17;;;;;;;8.43;7.83;;;15.20;99.90;;;;;;4910025;29;20196;-78
2021/10/06 07:50:44;;;;;;;5.30;3.27;;;14.90;99.90;;;;;;4912572;29;20229;-78
2021/10/06 07:53:11;;;;;;;3.03;2.53;;;14.90;99.90;;;;;;4912384;29;20200;-78
2021/10/06 07:55:39;;;;;;;4.13;3.00;;;14.60;99.90;;;;;;4909560;29;20205;-78
2021/10/06 07:58:07;;;;;;;3.57;2.50;;;14.30;99.90;;;;;;4911559;29;20267;-78
2021/10/06 08:00:34;;;;;;;9.33;8.80;;;14.10;99.90;;;;;;4911101;29;20664;-78
2021/10/06 08:03:01;;;;;;;10.17;9.57;;;14.00;99.90;;;;;;4911649;29;20201;-78
2021/10/06 08:05:28;;;;;;;6.43;5.93;;;14.00;99.90;;;;;;4911131;29;20216;-78
2021/10/06 08:07:55;;;;;;;10.00;9.27;;;13.90;99.90;;;;;;4910167;29;20287;-78
2021/10/06 08:10:22;;;;;;;9.87;9.17;;;13.70;99.90;;;;;;4911143;29;20199;-78
2021/10/06 08:12:49;;;;;;;10.70;10.00;;;13.40;99.90;;;;;;4907773;29;20234;-78
2021/10/06 08:15:17;;;;;;;9.87;9.17;;;13.20;99.90;;;;;;4912344;29;20615;-77
2021/10/06 08:17:43;;;;;;;10.07;9.37;;;13.00;99.90;;;;;;4907896;29;20635;-77
2021/10/06 08:20:11;;;;;;;10.13;9.43;;;13.50;99.90;;;;;;4911577;29;20200;-77
2021/10/06 08:22:38;;;;;;;7.77;7.27;;;14.10;99.90;;;;;;4909099;29;20204;-78
2021/10/06 08:25:06;;;;;;;4.27;2.73;;;14.70;99.90;;;;;;4912752;29;20204;-79
2021/10/06 08:27:33;;;;;;;10.23;9.40;;;15.30;99.90;;;;;;4910510;29;20267;-77
2021/10/06 08:30:00;;;;;;;6.03;5.53;;;15.80;99.90;;;;;;4908187;29;20201;-79
2021/10/06 08:32:28;;;;;;;5.00;2.70;;;16.30;99.90;;;;;;4914509;29;20235;-78
2021/10/06 08:34:55;;;;;;;3.17;2.70;;;16.60;99.90;;;;;;4908328;29;20729;-78
2021/10/06 08:37:22;;;;;;;6.63;5.70;;;17.00;99.90;;;;;;4913337;29;20282;-78
2021/10/06 08:39:49;;;;;;;3.47;2.60;;;17.30;99.90;;;;;;4908546;29;20266;-78
2021/10/06 08:42:16;;;;;;;5.07;4.67;;;17.40;99.90;;;;;;4907268;29;20207;-78
2021/10/06 08:44:47;;;;;;;3.70;3.07;;;17.60;99.90;;;;;;4909983;29;20623;-78
2021/10/06 08:47:14;;;;;;;5.70;3.37;;;17.90;99.90;;;;;;4909821;29;20798;-78
2021/10/06 08:49:44;;;;;;;4.20;2.67;;;18.10;99.90;;;;;;4905879;29;20255;-78
2021/10/06 08:52:11;;;;;;;4.87;3.00;;;18.10;99.90;;;;;;4906192;29;20197;-78
2021/10/06 08:54:38;;;;;;;4.63;4.33;;;18.20;99.90;;;;;;4908579;29;20605;-79
2021/10/06 08:57:05;;;;;;;3.37;2.40;;;18.50;99.90;;;;;;4908500;29;20216;-78
2021/10/06 08:59:32;;;;;;;2.53;2.33;;;18.90;99.90;;;;;;4909273;29;20237;-78
2021/10/06 09:02:11;;;;;;;2.93;2.50;;;19.00;99.90;;;;;;4911242;29;20626;-79
2021/10/06 09:04:38;;;;;;;2.40;2.20;;;18.70;99.90;;;;;;4909307;29;20632;-78
2021/10/06 09:07:07;;;;;;;4.93;2.80;;;18.30;99.90;;;;;;4908186;29;20280;-79
2021/10/06 09:09:35;;;;;;;3.47;2.40;;;18.30;99.90;;;;;;4912382;29;20197;-78
2021/10/06 09:12:08;;;;;;;5.87;2.63;;;17.90;99.90;;;;;;4908580;29;20204;-78
2021/10/06 09:14:41;;;;;;;2.60;2.10;;;17.30;99.90;;;;;;4906601;29;20256;-78
2021/10/06 09:17:10;;;;;;;4.03;2.40;;;16.80;99.90;;;;;;4906555;29;20280;-78
2021/10/06 09:19:40;;;;;;;3.77;2.43;;;16.40;99.90;;;;;;4909305;29;20216;-78
2021/10/06 09:22:13;;;;;;;4.43;2.63;;;16.00;99.90;;;;;;4908999;29;20283;-78
2021/10/06 09:24:52;;;;;;;3.53;2.50;;;15.80;99.90;;;;;;4910617;29;20198;-78
2021/10/06 09:27:20;;;;;;;3.13;2.63;;;15.40;99.90;;;;;;4908618;29;20275;-78
2021/10/06 09:29:48;;;;;;;8.20;7.50;;;15.20;99.90;;;;;;4903985;29;20201;-78
2021/10/06 09:32:22;;;;;;;6.80;6.10;;;14.90;99.90;;;;;;4910812;29;20615;-78
2021/10/06 09:35:00;;;;;;;4.80;2.40;;;14.80;99.90;;;;;;4905312;29;20207;-78
2021/10/06 09:37:28;;;;;;;8.93;8.33;;;14.80;99.90;;;;;;4904067;29;20226;-78
2021/10/06 09:39:56;;;;;;;3.17;2.67;;;15.20;99.90;;;;;;4907189;29;20495;-78
2021/10/06 09:42:23;;;;;;;2.53;2.30;;;15.60;99.90;;;;;;4905708;29;20204;-78
2021/10/06 09:44:55;;;;;;;2.73;2.47;;;16.00;99.90;;;;;;4906220;29;20204;-78
2021/10/06 09:47:22;;;;;;;2.70;2.20;;;16.20;99.90;;;;;;4906895;29;20234;-78
2021/10/06 09:49:55;;;;;;;5.03;2.40;;;16.10;99.90;;;;;;4907046;29;20199;-79
2021/10/06 09:52:24;;;;;;;4.13;2.70;;;16.00;99.90;;;;;;4907926;29;20209;-78
2021/10/06 09:54:53;;;;;;;3.33;2.20;;;15.70;99.90;;;;;;4896810;29;20745;-77
2021/10/06 09:57:28;;;;;;;2.10;2.00;;;15.50;99.90;;;;;;4903827;29;20330;-78
2021/10/06 09:59:57;;;;;;;8.23;7.60;;;15.30;99.90;;;;;;4899474;29;20248;-78
2021/10/06 10:02:26;;;;;;;9.93;9.33;;;15.40;99.90;;;;;;4906712;29;20235;-78
2021/10/06 10:04:54;;;;;;;9.80;9.20;;;15.50;99.90;;;;;;4906029;29;20293;-78
2021/10/06 10:07:22;;;;;;;10.40;9.80;;;15.60;99.90;;;;;;4906902;29;20336;-78
2021/10/06 10:09:49;;;;;;;10.23;9.63;;;15.60;99.90;;;;;;4906303;29;20205;-78
2021/10/06 10:12:19;;;;;;;9.97;9.30;;;15.60;99.90;;;;;;4905219;29;20266;-78
2021/10/06 10:14:46;;;;;;;10.23;9.43;;;15.60;99.90;;;;;;4905277;29;20196;-78
2021/10/06 10:17:13;;;;;;;9.97;9.03;;;15.60;99.90;;;;;;4906466;29;20223;-78
2021/10/06 10:19:39;;;;;;;9.83;9.13;;;15.50;99.90;;;;;;4896433;29;20279;-78
2021/10/06 10:22:07;;;;;;;5.30;2.30;;;15.40;99.90;;;;;;4907358;29;20669;-78
2021/10/06 10:24:45;;;;;;;8.63;8.00;;;15.40;99.90;;;;;;4892981;29;20242;-78
2021/10/06 10:27:13;;;;;;;2.80;2.23;;;15.30;99.90;;;;;;4905662;29;20228;-78
2021/10/06 10:29:47;;;;;;;2.23;2.00;;;15.30;99.90;;;;;;4900374;29;20627;-77
2021/10/06 10:32:16;;;;;;;3.77;2.53;;;15.20;99.90;;;;;;4904228;29;20204;-78
2021/10/06 10:35:07;;;;;;;8.53;7.93;;;15.20;99.90;;;;;;4901517;29;20214;-77
2021/10/06 10:38:10;;;;;;;7.40;6.70;;;15.20;99.90;;;;;;4878708;29;20244;-78
2021/10/06 10:40:40;;;;;;;9.53;8.93;;;15.40;99.90;;;;;;4896380;29;20235;-78
2021/10/06 10:43:08;;;;;;;7.23;6.47;;;15.30;99.90;;;;;;4886710;29;20236;-79
2021/10/06 10:45:41;;;;;;;8.43;7.80;;;15.40;99.90;;;;;;4887895;29;20211;-78
2021/10/06 10:48:10;;;;;;;7.87;7.33;;;15.40;99.90;;;;;;4883770;29;20268;-78
2021/10/06 10:51:06;;;;;;;9.57;8.77;;;15.40;99.90;;;;;;4891067;29;20565;-78
2021/10/06 10:54:01;;;;;;;2.73;2.53;;;15.20;99.90;;;;;;4903541;29;20238;-78
2021/10/06 10:56:50;;;;;;;4.27;3.90;;;14.90;99.90;;;;;;4907892;29;20235;-78
2021/10/06 10:59:19;;;;;;;8.87;8.27;;;14.90;99.90;;;;;;4907478;29;20299;-78
2021/10/06 11:01:58;;;;;;;9.90;9.17;;;14.80;99.90;;;;;;4907201;29;20288;-78
2021/10/06 11:04:27;;;;;;;8.63;8.13;;;14.70;99.90;;;;;;4907260;29;20635;-78
2021/10/06 11:06:56;;;;;;;8.40;7.80;;;14.60;99.90;;;;;;4900278;29;20218;-78
2021/10/06 11:09:41;;;;;;;9.40;8.60;;;14.50;99.90;;;;;;4908510;29;20226;-78
2021/10/06 11:12:32;;;;;;;8.80;8.20;;;14.60;99.90;;;;;;4904708;29;20204;-78
2021/10/06 11:15:25;;;;;;;9.10;8.50;;;14.70;99.90;;;;;;4902422;29;20714;-78
2021/10/06 11:18:29;;;;;;;8.13;7.70;;;14.80;99.90;;;;;;4893220;29;20325;-78
2021/10/06 11:21:06;;;;;;;9.73;9.13;;;14.90;99.90;;;;;;4904786;29;20195;-78
2021/10/06 11:23:53;;;;;;;9.20;8.60;;;14.90;99.90;;;;;;4906599;29;20201;-78
2021/10/06 11:26:25;;;;;;;8.60;7.97;;;14.90;99.90;;;;;;4908870;29;20431;-78
2021/10/06 11:28:55;;;;;;;8.60;8.00;;;14.90;99.90;;;;;;4906870;29;20230;-78
2021/10/06 11:31:24;;;;;;;8.20;7.70;;;15.00;99.90;;;;;;4909030;29;20196;-78
2021/10/06 11:33:52;;;;;;;9.57;8.77;;;15.30;99.90;;;;;;4909822;29;20202;-78
2021/10/06 11:36:22;;;;;;;2.40;1.93;;;15.50;99.90;;;;;;4912202;29;20249;-78
2021/10/06 11:38:51;;;;;;;6.97;6.57;;;15.60;99.90;;;;;;4908309;29;20281;-78
2021/10/06 11:41:19;;;;;;;9.23;8.67;;;15.60;99.90;;;;;;4913346;29;20260;-78
2021/10/06 11:43:49;;;;;;;2.23;1.80;;;15.60;99.90;;;;;;4909013;29;20224;-78
2021/10/06 11:46:19;;;;;;;2.10;1.90;;;15.80;99.90;;;;;;4910701;29;20716;-78
2021/10/06 11:48:49;;;;;;;6.80;6.40;;;15.80;99.90;;;;;;4911292;29;20197;-78
2021/10/06 11:51:18;;;;;;;8.70;8.20;;;15.90;99.90;;;;;;4911080;29;20677;-78
2021/10/06 11:53:47;;;;;;;3.67;3.17;;;15.90;99.90;;;;;;4910632;29;20216;-78
2021/10/06 11:56:28;;;;;;;2.20;2.00;;;15.90;99.90;;;;;;4913284;29;20651;-79
2021/10/06 11:58:55;;;;;;;2.33;2.13;;;15.90;99.90;;;;;;4909613;29;20240;-78
2021/10/06 12:01:22;;;;;;;2.40;2.20;;;15.90;99.90;;;;;;4911505;29;20204;-78
2021/10/06 12:03:49;;;;;;;2.40;2.20;;;15.90;99.90;;;;;;4911222;29;20221;-78
2021/10/06 12:06:21;;;;;;;2.40;2.00;;;15.80;99.90;;;;;;4911761;29;20214;-79
2021/10/06 12:08:49;;;;;;;2.70;1.90;;;15.80;99.90;;;;;;4912446;29;20544;-78
2021/10/06 12:11:18;;;;;;;2.37;2.00;;;15.80;99.90;;;;;;4912449;29;20283;-79
2021/10/06 12:13:45;;;;;;;3.27;2.13;;;15.80;99.90;;;;;;4911911;29;20220;-78
2021/10/06 12:16:26;;;;;;;3.43;3.23;;;15.70;99.90;;;;;;4911164;29;20223;-78
2021/10/06 12:18:55;;;;;;;3.37;2.00;;;15.60;99.90;;;;;;4901569;29;20281;-78
2021/10/06 12:21:24;;;;;;;4.13;3.03;;;15.60;99.90;;;;;;4912416;29;20202;-78
2021/10/06 12:23:51;;;;;;;9.40;8.80;;;15.40;99.90;;;;;;4909932;29;20201;-78
2021/10/06 12:26:20;;;;;;;7.17;6.77;;;15.30;99.90;;;;;;4898312;29;20254;-78
2021/10/06 12:28:55;;;;;;;8.20;7.70;;;15.20;99.90;;;;;;4905996;29;20197;-79
2021/10/06 12:31:24;;;;;;;7.33;6.83;;;15.20;99.90;;;;;;4909644;29;20210;-78
2021/10/06 12:34:03;;;;;;;8.93;8.23;;;15.20;99.90;;;;;;4905364;29;20200;-78
2021/10/06 12:36:32;;;;;;;7.70;6.63;;;15.40;99.90;;;;;;4906622;29;20276;-78
2021/10/06 12:38:59;;;;;;;5.17;4.77;;;15.50;99.90;;;;;;4907711;29;20259;-78
2021/10/06 12:41:37;;;;;;;4.60;4.13;;;15.50;99.90;;;;;;4914609;29;20199;-78
2021/10/06 12:44:16;;;;;;;6.20;5.80;;;15.40;99.90;;;;;;4906141;29;20205;-77